Time;durP1;ratioP1;P1;durP2;ratioP2;P2;SDS_P1;SDS_P2;PMS_P1;PMS_P2;Temp;Humidity;BMP_temperature;BMP_pressure;BME280_temperature;BME280_humidity;BME280_pressure;Samples;Min_cycle;Max_cycle;Signal;HPM_P1;HPM_P2
2022/09/04 00:02:44;;;;;;;4.25;2.13;;;17.40;99.90;;;;;;5032695;28;20044;-80
2022/09/04 00:05:44;;;;;;;5.70;2.92;;;17.40;99.90;;;;;;5008078;28;20104;-80
2022/09/04 00:08:46;;;;;;;3.30;2.47;;;17.50;99.90;;;;;;5016610;28;20044;-80
2022/09/04 00:11:43;;;;;;;4.88;1.90;;;17.50;99.90;;;;;;5032384;28;20056;-80
2022/09/04 00:14:47;;;;;;;3.58;2.10;;;17.40;99.90;;;;;;5032333;28;20067;-80
2022/09/04 00:17:24;;;;;;;3.25;2.25;;;17.40;99.90;;;;;;5021880;28;20045;-80
2022/09/04 00:19:58;;;;;;;6.15;2.53;;;17.40;99.90;;;;;;5032165;28;20041;-80
2022/09/04 00:23:08;;;;;;;3.42;2.22;;;17.40;99.90;;;;;;4998949;28;20040;-80
2022/09/04 00:26:13;;;;;;;3.58;2.05;;;17.40;99.90;;;;;;5031974;28;20030;-80
2022/09/04 00:28:54;;;;;;;4.88;2.63;;;17.40;99.90;;;;;;5032012;28;20021;-80
2022/09/04 00:31:38;;;;;;;6.72;4.38;;;17.30;99.90;;;;;;5032006;28;20026;-80
2022/09/04 00:34:19;;;;;;;5.95;2.47;;;17.40;99.90;;;;;;4982820;28;20536;-80
2022/09/04 00:36:51;;;;;;;6.35;3.28;;;17.40;99.90;;;;;;5031880;28;20120;-80
2022/09/04 00:39:35;;;;;;;5.85;3.03;;;17.40;99.90;;;;;;5014312;28;20102;-80
2022/09/04 00:42:35;;;;;;;6.47;3.08;;;17.40;99.90;;;;;;5015021;28;20037;-80
2022/09/04 00:45:20;;;;;;;5.13;2.78;;;17.40;99.90;;;;;;5026926;28;20446;-80
2022/09/04 00:48:29;;;;;;;8.93;2.42;;;17.40;99.90;;;;;;5031819;28;20472;-80
2022/09/04 00:51:45;;;;;;;6.50;2.55;;;17.40;99.90;;;;;;5016438;28;20513;-80
2022/09/04 00:54:51;;;;;;;4.50;2.70;;;17.10;99.90;;;;;;5031491;28;20046;-80
2022/09/04 00:57:32;;;;;;;6.97;4.80;;;17.20;99.90;;;;;;5031242;28;20072;-80
2022/09/04 01:00:14;;;;;;;6.10;3.85;;;17.20;99.90;;;;;;5031436;28;20063;-80
2022/09/04 01:03:04;;;;;;;9.18;4.55;;;17.20;99.90;;;;;;5031111;28;20049;-80
2022/09/04 01:06:08;;;;;;;14.55;4.35;;;17.20;99.90;;;;;;5006242;28;20382;-80
2022/09/04 01:09:11;;;;;;;7.45;4.13;;;17.30;99.90;;;;;;5013222;28;20025;-80
2022/09/04 01:12:08;;;;;;;9.07;4.18;;;17.30;99.90;;;;;;5022439;28;20033;-80
2022/09/04 01:15:07;;;;;;;6.32;3.53;;;17.20;99.90;;;;;;4999915;28;20048;-80
2022/09/04 01:17:50;;;;;;;5.65;2.58;;;17.20;99.90;;;;;;4995601;28;20034;-80
2022/09/04 01:20:37;;;;;;;5.78;2.97;;;17.20;99.90;;;;;;4994987;28;20030;-79
2022/09/04 01:23:51;;;;;;;5.00;2.28;;;17.20;99.90;;;;;;5011173;28;20394;-80
2022/09/04 01:26:49;;;;;;;3.95;2.40;;;17.20;99.90;;;;;;5031197;28;20037;-80
2022/09/04 01:29:17;;;;;;;2.75;1.75;;;17.30;99.90;;;;;;5014753;28;20132;-80
2022/09/04 01:31:51;;;;;;;6.05;3.58;;;17.30;99.90;;;;;;5030895;28;20041;-80
2022/09/04 01:34:50;;;;;;;5.00;3.08;;;17.30;99.90;;;;;;5014196;28;20033;-79
2022/09/04 01:38:11;;;;;;;7.50;2.78;;;17.30;99.90;;;;;;5013061;28;20025;-79
2022/09/04 01:41:17;;;;;;;;;;;17.30;99.90;;;;;;5026980;28;20076;-79
2022/09/04 01:43:43;;;;;;;8.50;3.22;;;17.30;99.90;;;;;;4892988;29;20023;-80
2022/09/04 01:46:14;;;;;;;8.80;4.28;;;17.20;99.90;;;;;;4986449;28;20125;-79
2022/09/04 01:49:10;;;;;;;5.53;3.17;;;17.20;99.90;;;;;;5011046;28;20064;-80
2022/09/04 01:52:07;;;;;;;6.10;3.70;;;17.10;99.90;;;;;;5010789;28;20104;-79
2022/09/04 01:54:52;;;;;;;3.53;2.50;;;16.90;99.90;;;;;;5010974;28;20045;-79
2022/09/04 01:57:39;;;;;;;8.80;2.83;;;16.90;99.90;;;;;;5010927;28;20041;-79
2022/09/04 02:00:21;;;;;;;4.97;2.70;;;16.80;99.90;;;;;;4993014;28;20498;-79
2022/09/04 02:03:21;;;;;;;5.63;2.85;;;16.80;99.90;;;;;;4993421;28;20022;-78
2022/09/04 02:07:11;;;;;;;9.10;3.03;;;16.80;99.90;;;;;;4994709;28;20375;-79
2022/09/04 02:10:07;;;;;;;9.02;4.13;;;16.80;99.90;;;;;;4980983;28;20048;-79
2022/09/04 02:12:41;;;;;;;7.53;3.55;;;16.80;99.90;;;;;;5010704;28;20421;-79
2022/09/04 02:15:21;;;;;;;5.10;2.83;;;16.90;99.90;;;;;;5017745;28;20398;-79
2022/09/04 02:18:02;;;;;;;5.50;3.83;;;16.80;99.90;;;;;;5014344;28;20053;-79
2022/09/04 02:20:30;;;;;;;5.53;3.50;;;16.90;99.90;;;;;;5033814;28;20431;-79
2022/09/04 02:23:14;;;;;;;3.83;2.33;;;16.90;99.90;;;;;;5016632;28;20035;-79
2022/09/04 02:26:02;;;;;;;4.30;2.67;;;16.90;99.90;;;;;;5000830;28;20037;-79
2022/09/04 02:28:56;;;;;;;5.22;2.72;;;16.80;99.90;;;;;;5016459;28;20493;-79
2022/09/04 02:31:57;;;;;;;4.70;2.55;;;16.80;99.90;;;;;;5034271;28;20079;-79
2022/09/04 02:34:43;;;;;;;7.60;3.05;;;16.80;99.90;;;;;;5018352;28;20037;-79
2022/09/04 02:37:29;;;;;;;7.60;3.25;;;16.70;99.90;;;;;;5016715;28;20107;-79
2022/09/04 02:40:57;;;;;;;4.20;3.08;;;16.70;99.90;;;;;;5038650;23;20132;-66
2022/09/04 02:44:09;;;;;;;5.03;2.05;;;16.70;99.90;;;;;;5013956;28;20076;-66
2022/09/04 02:46:55;;;;;;;5.90;2.72;;;16.60;99.90;;;;;;5014031;28;20080;-66
2022/09/04 02:50:18;;;;;;;3.97;2.33;;;16.80;99.90;;;;;;4980052;28;20080;-65
2022/09/04 02:53:14;;;;;;;8.43;3.65;;;16.80;99.90;;;;;;5013887;28;20489;-65
2022/09/04 02:56:08;;;;;;;5.50;3.85;;;16.90;99.90;;;;;;5013126;28;20080;-66
2022/09/04 02:59:16;;;;;;;4.05;2.47;;;16.80;99.90;;;;;;5013791;28;20029;-66
2022/09/04 03:01:59;;;;;;;4.32;1.90;;;16.80;99.90;;;;;;5006668;28;20398;-66
2022/09/04 03:04:51;;;;;;;3.85;2.67;;;16.90;99.90;;;;;;5013855;28;20026;-66
2022/09/04 03:07:48;;;;;;;3.13;2.00;;;16.90;99.90;;;;;;5012678;28;20034;-66
2022/09/04 03:10:19;;;;;;;10.20;2.42;;;16.80;99.90;;;;;;4991998;28;20092;-66
2022/09/04 03:13:13;;;;;;;3.72;1.95;;;16.80;99.90;;;;;;5012709;28;20478;-66
2022/09/04 03:16:14;;;;;;;2.60;2.05;;;16.70;99.90;;;;;;5024026;28;20045;-66
2022/09/04 03:19:08;;;;;;;4.20;2.42;;;16.60;99.90;;;;;;5017146;28;20034;-66
2022/09/04 03:22:12;;;;;;;5.47;1.92;;;16.60;99.90;;;;;;5033283;28;20034;-66
2022/09/04 03:25:23;;;;;;;4.90;2.15;;;16.60;99.90;;;;;;5005032;28;20084;-66
2022/09/04 03:27:49;;;;;;;6.90;2.78;;;16.60;99.90;;;;;;5033236;28;20036;-66
2022/09/04 03:30:16;;;;;;;4.45;2.33;;;16.60;99.90;;;;;;5032481;28;20034;-66
2022/09/04 03:33:20;;;;;;;4.43;2.00;;;16.60;99.90;;;;;;5015362;28;20100;-67
2022/09/04 03:36:15;;;;;;;3.15;1.23;;;16.60;99.90;;;;;;5012001;28;20060;-67
2022/09/04 03:38:43;;;;;;;5.68;2.20;;;16.60;99.90;;;;;;5017409;28;20063;-66
2022/09/04 03:41:34;;;;;;;2.63;1.60;;;16.60;99.90;;;;;;5033007;28;20069;-67
2022/09/04 03:44:30;;;;;;;5.22;2.55;;;16.60;99.90;;;;;;5016272;28;20029;-67
2022/09/04 03:47:27;;;;;;;3.15;1.90;;;16.60;99.90;;;;;;5032956;28;20037;-67
2022/09/04 03:50:29;;;;;;;11.23;3.42;;;16.60;99.90;;;;;;5016112;28;20022;-67
2022/09/04 03:53:17;;;;;;;3.40;1.63;;;16.40;99.90;;;;;;5016378;28;20473;-66
2022/09/04 03:56:11;;;;;;;2.85;2.00;;;16.40;99.90;;;;;;5032838;28;20076;-67
2022/09/04 03:58:46;;;;;;;3.55;2.47;;;16.40;99.90;;;;;;5014589;28;20386;-66
2022/09/04 04:01:40;;;;;;;4.43;1.60;;;16.50;99.90;;;;;;5032767;28;20040;-66
2022/09/04 04:04:49;;;;;;;11.90;3.33;;;16.40;99.90;;;;;;5014542;28;20040;-67
2022/09/04 04:07:31;;;;;;;4.53;1.70;;;16.20;99.90;;;;;;5032619;28;20029;-67
2022/09/04 04:10:34;;;;;;;2.53;1.15;;;16.20;99.90;;;;;;5015064;28;20033;-67
2022/09/04 04:13:20;;;;;;;3.78;1.17;;;16.20;99.90;;;;;;5017181;28;20072;-66
2022/09/04 04:16:31;;;;;;;2.28;1.23;;;16.20;99.90;;;;;;5002559;28;20045;-67
2022/09/04 04:19:09;;;;;;;1.92;1.38;;;16.20;99.90;;;;;;4993830;28;20037;-67
2022/09/04 04:21:56;;;;;;;1.88;1.20;;;16.20;99.90;;;;;;5012508;28;20034;-66
2022/09/04 04:24:49;;;;;;;2.28;1.55;;;16.30;99.90;;;;;;5012075;28;20512;-66
2022/09/04 04:27:59;;;;;;;1.25;1.10;;;16.20;99.90;;;;;;5012407;28;20042;-66
2022/09/04 04:30:35;;;;;;;1.90;1.17;;;16.30;99.90;;;;;;5012149;28;20076;-67
2022/09/04 04:33:16;;;;;;;2.42;1.48;;;16.20;99.90;;;;;;4995650;28;20115;-66
2022/09/04 04:36:11;;;;;;;3.45;1.58;;;16.10;99.90;;;;;;5012225;28;20033;-66
2022/09/04 04:39:08;;;;;;;3.05;1.45;;;16.00;99.90;;;;;;5011832;28;20038;-66
2022/09/04 04:42:15;;;;;;;1.27;1.00;;;15.90;99.90;;;;;;5011817;28;20125;-67
2022/09/04 04:48:03;;;;;;;2.88;1.23;;;15.90;99.90;;;;;;5012230;28;20029;-66
2022/09/04 04:50:44;;;;;;;3.42;2.13;;;15.90;99.90;;;;;;5011676;28;20375;-66
2022/09/04 04:53:35;;;;;;;2.53;1.50;;;15.90;99.90;;;;;;4994631;28;20030;-66
2022/09/04 04:56:57;;;;;;;2.42;1.45;;;15.90;99.90;;;;;;4995291;28;20026;-66
2022/09/04 04:59:44;;;;;;;2.63;1.42;;;15.90;99.90;;;;;;4969741;28;20038;-66
2022/09/04 05:02:27;;;;;;;2.28;1.33;;;15.90;99.90;;;;;;5008994;28;20405;-66
2022/09/04 05:05:06;;;;;;;2.90;0.93;;;16.00;99.90;;;;;;4994697;28;20034;-66
2022/09/04 05:08:07;;;;;;;7.63;2.13;;;16.10;99.90;;;;;;4994830;28;20049;-66
2022/09/04 05:10:55;;;;;;;2.20;1.30;;;16.10;99.90;;;;;;5011456;28;20042;-66
2022/09/04 05:14:04;;;;;;;2.60;1.20;;;16.10;99.90;;;;;;4994688;28;20034;-66
2022/09/04 05:16:56;;;;;;;1.73;0.98;;;16.10;99.90;;;;;;5029776;28;20033;-66
2022/09/04 05:20:04;;;;;;;2.55;1.67;;;16.00;99.90;;;;;;5030881;28;20026;-66
2022/09/04 05:22:41;;;;;;;2.30;1.30;;;16.00;99.90;;;;;;5029568;28;20030;-65
2022/09/04 05:25:59;;;;;;;2.28;1.38;;;16.10;99.90;;;;;;4997531;28;20631;-66
2022/09/04 05:29:23;;;;;;;2.67;1.52;;;16.10;99.90;;;;;;5013354;28;20043;-65
2022/09/04 05:32:23;;;;;;;6.78;2.67;;;16.20;99.90;;;;;;5016085;28;20393;-66
2022/09/04 05:35:13;;;;;;;3.60;2.03;;;16.30;99.90;;;;;;5013737;28;20033;-65
2022/09/04 05:37:57;;;;;;;6.13;1.90;;;16.30;99.90;;;;;;5031097;28;20038;-66
2022/09/04 05:41:02;;;;;;;2.13;1.55;;;16.30;99.90;;;;;;5013269;28;20029;-65
2022/09/04 05:44:24;;;;;;;2.53;1.42;;;16.40;99.90;;;;;;5013219;28;20037;-66
2022/09/04 05:47:02;;;;;;;3.60;2.00;;;16.50;99.90;;;;;;5030854;28;20060;-66
2022/09/04 05:49:34;;;;;;;4.15;1.85;;;16.60;99.90;;;;;;5027192;28;20037;-66
2022/09/04 05:52:42;;;;;;;3.35;2.45;;;16.70;99.90;;;;;;5021536;28;20033;-66
2022/09/04 05:55:30;;;;;;;3.33;2.03;;;16.70;99.90;;;;;;5028213;28;20113;-66
2022/09/04 05:58:18;;;;;;;4.30;2.45;;;16.70;99.90;;;;;;5017598;28;20066;-67
2022/09/04 06:01:00;;;;;;;2.63;1.77;;;16.70;99.90;;;;;;5001001;28;20033;-67
2022/09/04 06:04:02;;;;;;;2.63;1.73;;;16.70;99.90;;;;;;5037165;28;20512;-66
2022/09/04 06:06:46;;;;;;;5.55;2.45;;;16.70;99.90;;;;;;5020870;28;20037;-66
2022/09/04 06:09:38;;;;;;;2.13;1.48;;;16.80;99.90;;;;;;5037087;28;20090;-67
2022/09/04 06:12:31;;;;;;;3.67;2.58;;;16.80;99.90;;;;;;5014270;28;20038;-66
2022/09/04 06:15:16;;;;;;;3.40;2.30;;;16.90;99.90;;;;;;5026029;28;20045;-66
2022/09/04 06:18:21;;;;;;;5.28;2.45;;;16.90;99.90;;;;;;5026098;28;20030;-67
2022/09/04 06:21:06;;;;;;;7.35;2.83;;;17.00;99.90;;;;;;5019748;28;20026;-66
2022/09/04 06:23:54;;;;;;;4.47;2.55;;;17.00;99.90;;;;;;5016988;28;20038;-67
2022/09/04 06:26:51;;;;;;;4.63;2.30;;;17.00;99.90;;;;;;4999746;28;20034;-66
2022/09/04 06:30:06;;;;;;;3.60;2.58;;;17.10;99.90;;;;;;5017163;28;20026;-67
2022/09/04 06:32:43;;;;;;;5.43;2.83;;;17.10;99.90;;;;;;5017081;28;20046;-66
2022/09/04 06:35:56;;;;;;;4.22;2.58;;;17.10;99.90;;;;;;5017413;28;20034;-68
2022/09/04 06:39:18;;;;;;;6.20;2.63;;;17.20;99.90;;;;;;5016871;28;20045;-67
2022/09/04 06:42:47;;;;;;;2.80;1.63;;;17.40;99.90;;;;;;5017003;28;20042;-66
2022/09/04 06:45:30;;;;;;;4.93;2.03;;;17.40;99.90;;;;;;5017045;28;20448;-67
2022/09/04 06:48:11;;;;;;;5.28;2.80;;;17.50;99.90;;;;;;5000745;28;20045;-68
2022/09/04 06:50:53;;;;;;;5.43;2.15;;;17.60;99.90;;;;;;4998932;28;20096;-67
2022/09/04 06:53:53;;;;;;;7.07;2.85;;;17.60;99.90;;;;;;5016569;28;20038;-67
2022/09/04 06:57:15;;;;;;;4.38;2.05;;;17.70;99.90;;;;;;4999905;28;20045;-67
2022/09/04 07:00:13;;;;;;;7.55;2.90;;;17.90;99.90;;;;;;4998998;28;20116;-67
2022/09/04 07:03:17;;;;;;;5.00;2.65;;;18.00;99.90;;;;;;5016298;28;20041;-66
2022/09/04 07:06:02;;;;;;;4.60;2.40;;;18.10;99.90;;;;;;4999848;28;20120;-67
2022/09/04 07:08:58;;;;;;;4.97;2.45;;;18.20;99.90;;;;;;4996799;28;20128;-67
2022/09/04 07:11:37;;;;;;;12.95;4.55;;;18.30;99.90;;;;;;5011725;28;20026;-67
2022/09/04 07:14:34;;;;;;;3.45;2.03;;;18.40;99.90;;;;;;5012046;28;20047;-67
2022/09/04 07:17:44;;;;;;;6.43;2.63;;;18.40;99.90;;;;;;5029790;28;20029;-66
2022/09/04 07:20:39;;;;;;;6.25;3.10;;;18.60;99.90;;;;;;4994184;28;20117;-67
2022/09/04 07:23:23;;;;;;;4.07;2.88;;;18.60;99.90;;;;;;4980452;28;20080;-67
2022/09/04 07:26:28;;;;;;;7.38;3.83;;;18.70;99.90;;;;;;4995919;28;20577;-67
2022/09/04 07:29:42;;;;;;;8.02;3.28;;;18.80;99.90;;;;;;5012958;28;20045;-67
2022/09/04 07:32:55;;;;;;;11.18;3.75;;;18.80;99.90;;;;;;4998504;28;20036;-67
2022/09/04 07:35:57;;;;;;;5.80;2.95;;;18.90;99.90;;;;;;4997835;28;20636;-68
2022/09/04 07:38:50;;;;;;;6.18;2.53;;;18.90;99.90;;;;;;4995945;28;20057;-67
2022/09/04 07:42:08;;;;;;;8.55;3.53;;;19.00;99.90;;;;;;4996316;28;20041;-69
2022/09/04 07:45:01;;;;;;;7.15;3.58;;;19.00;99.90;;;;;;4988524;28;20049;-68
2022/09/04 07:48:17;;;;;;;6.22;3.70;;;19.00;99.90;;;;;;5011614;28;20406;-68
2022/09/04 07:51:06;;;;;;;5.28;3.15;;;19.10;99.90;;;;;;4984561;28;20049;-68
2022/09/04 07:54:05;;;;;;;9.10;3.80;;;19.10;99.90;;;;;;5012560;28;20018;-68
2022/09/04 07:56:52;;;;;;;6.18;2.72;;;19.20;99.90;;;;;;5012650;28;20065;-68
2022/09/04 08:00:03;;;;;;;6.85;2.92;;;19.20;99.90;;;;;;5012587;28;20038;-68
2022/09/04 08:03:04;;;;;;;4.78;2.80;;;19.30;99.90;;;;;;5012614;28;20049;-68
2022/09/04 08:05:46;;;;;;;5.88;2.13;;;19.40;99.90;;;;;;5010111;28;20029;-68
2022/09/04 08:08:37;;;;;;;6.35;2.90;;;19.50;99.90;;;;;;5012489;28;20026;-67
2022/09/04 08:11:33;;;;;;;7.32;2.40;;;19.70;99.90;;;;;;4994634;28;20255;-67
2022/09/04 08:14:41;;;;;;;6.90;2.88;;;19.70;99.90;;;;;;5016250;28;20038;-68
2022/09/04 08:17:32;;;;;;;6.43;3.13;;;19.80;99.90;;;;;;5011047;28;20030;-68
2022/09/04 08:20:19;;;;;;;2.88;1.90;;;19.80;99.90;;;;;;5014656;28;20033;-68
2022/09/04 08:23:00;;;;;;;3.28;1.98;;;19.90;99.90;;;;;;4995147;28;20040;-68
2022/09/04 08:25:55;;;;;;;4.38;2.67;;;19.90;99.90;;;;;;4994881;28;20037;-68
2022/09/04 08:28:55;;;;;;;6.25;2.38;;;20.00;99.90;;;;;;4995452;28;20033;-67
2022/09/04 08:32:09;;;;;;;4.07;2.63;;;20.10;99.90;;;;;;5012207;28;20540;-68
2022/09/04 08:35:08;;;;;;;4.68;2.50;;;20.20;99.90;;;;;;5004690;28;20049;-68
2022/09/04 08:38:19;;;;;;;4.40;2.38;;;20.00;99.90;;;;;;5011846;28;20037;-68
2022/09/04 08:41:28;;;;;;;6.63;3.35;;;19.90;99.90;;;;;;5012006;28;20536;-68
2022/09/04 08:44:21;;;;;;;4.88;2.53;;;20.10;99.90;;;;;;5010132;28;20457;-67
2022/09/04 08:47:26;;;;;;;5.60;3.03;;;20.10;99.90;;;;;;5031823;28;20029;-67
2022/09/04 08:50:34;;;;;;;4.72;2.58;;;20.20;99.90;;;;;;5017822;28;20386;-68
2022/09/04 08:53:34;;;;;;;3.55;1.65;;;20.50;99.90;;;;;;4982818;28;20047;-68
2022/09/04 08:56:27;;;;;;;5.20;2.53;;;20.50;99.90;;;;;;5031742;28;20037;-68
2022/09/04 08:59:37;;;;;;;6.18;2.30;;;20.60;99.90;;;;;;5014774;28;20043;-67
2022/09/04 09:02:45;;;;;;;4.32;2.72;;;20.70;99.90;;;;;;5031344;28;20629;-67
2022/09/04 09:05:58;;;;;;;4.07;1.85;;;20.70;99.90;;;;;;5031128;28;20113;-68
2022/09/04 09:09:30;;;;;;;6.07;2.22;;;20.70;99.90;;;;;;5031355;28;20037;-67
2022/09/04 09:12:14;;;;;;;3.80;2.35;;;20.80;99.90;;;;;;5031365;28;20120;-68
2022/09/04 09:15:14;;;;;;;3.85;2.22;;;21.00;99.90;;;;;;5031067;28;20207;-68
2022/09/04 09:17:59;;;;;;;3.33;2.45;;;21.20;99.90;;;;;;5014329;28;20036;-68
2022/09/04 09:21:01;;;;;;;5.53;2.95;;;21.10;99.90;;;;;;5013202;28;20628;-67
2022/09/04 09:23:57;;;;;;;4.45;2.35;;;21.00;99.90;;;;;;5014586;28;20032;-68
2022/09/04 09:26:29;;;;;;;6.03;2.90;;;21.10;99.90;;;;;;5030939;28;20397;-67
2022/09/04 09:29:45;;;;;;;4.45;1.65;;;21.30;99.90;;;;;;5012636;28;20116;-67
2022/09/04 09:32:41;;;;;;;3.55;2.42;;;21.30;99.90;;;;;;5031061;28;20389;-68
2022/09/04 09:35:07;;;;;;;3.35;1.90;;;21.30;99.90;;;;;;5030807;28;20033;-68
2022/09/04 09:38:04;;;;;;;4.30;1.55;;;21.50;99.90;;;;;;5031003;28;20052;-68
2022/09/04 09:41:05;;;;;;;4.20;2.13;;;21.60;99.90;;;;;;5030506;28;20094;-68
2022/09/04 09:43:53;;;;;;;3.72;1.70;;;21.70;99.90;;;;;;5014952;28;20034;-68
2022/09/04 09:47:10;;;;;;;3.40;2.05;;;21.80;99.90;;;;;;5029559;28;20037;-68
2022/09/04 09:49:48;;;;;;;2.80;1.70;;;22.00;99.90;;;;;;5030655;28;20105;-68
2022/09/04 09:52:40;;;;;;;4.28;1.98;;;22.20;99.90;;;;;;5030528;28;20033;-68
2022/09/04 09:55:42;;;;;;;2.75;1.90;;;22.30;99.90;;;;;;5029551;28;20021;-68
2022/09/04 09:58:53;;;;;;;3.95;1.98;;;22.50;99.90;;;;;;5029825;28;20060;-68
2022/09/04 10:01:49;;;;;;;4.47;2.25;;;22.70;99.90;;;;;;5028568;28;20049;-68
2022/09/04 10:04:58;;;;;;;3.55;1.90;;;22.90;99.90;;;;;;5030438;28;20510;-68
2022/09/04 10:07:53;;;;;;;3.75;2.25;;;23.10;99.90;;;;;;5014998;28;20397;-68
2022/09/04 10:10:53;;;;;;;3.85;1.65;;;23.00;99.90;;;;;;5010693;28;20037;-68
2022/09/04 10:13:47;;;;;;;3.97;2.38;;;23.20;99.90;;;;;;5021539;28;20061;-68
2022/09/04 10:17:07;;;;;;;5.75;2.35;;;23.50;99.90;;;;;;5030554;28;20113;-68
2022/09/04 10:20:15;;;;;;;4.17;2.13;;;23.40;99.90;;;;;;5029602;28;20079;-68
2022/09/04 10:23:22;;;;;;;3.95;2.35;;;23.40;99.90;;;;;;5030630;28;20322;-68
2022/09/04 10:26:13;;;;;;;6.28;1.13;;;23.70;99.90;;;;;;5030264;28;20048;-68
2022/09/04 10:29:22;;;;;;;1.70;1.13;;;23.90;99.90;;;;;;5012309;28;20130;-68
2022/09/04 10:33:03;;;;;;;2.15;1.10;;;24.00;99.90;;;;;;5030215;28;20041;-69
2022/09/04 10:36:03;;;;;;;4.07;1.30;;;24.00;99.90;;;;;;4954107;28;20031;-68
2022/09/04 10:42:14;;;;;;;3.10;1.50;;;24.20;99.90;;;;;;5032254;28;20041;-68
2022/09/04 10:44:51;;;;;;;1.88;1.23;;;23.90;99.90;;;;;;4982284;28;20042;-69
2022/09/04 10:47:46;;;;;;;1.65;0.80;;;24.20;99.90;;;;;;5013028;28;20057;-68
2022/09/04 10:51:07;;;;;;;1.55;0.88;;;24.20;99.90;;;;;;5013862;28;20504;-68
2022/09/04 10:54:05;;;;;;;1.55;1.05;;;24.60;99.90;;;;;;5013548;28;20410;-68
2022/09/04 10:56:46;;;;;;;2.90;1.83;;;24.60;99.90;;;;;;4996438;28;20044;-68
2022/09/04 10:59:33;;;;;;;2.53;1.10;;;24.70;99.90;;;;;;5013868;28;20482;-68
2022/09/04 11:02:39;;;;;;;2.95;1.20;;;25.20;99.90;;;;;;5013623;28;20030;-68
2022/09/04 11:05:52;;;;;;;4.00;1.27;;;25.30;99.90;;;;;;5013817;28;20509;-69
2022/09/04 11:08:41;;;;;;;2.05;1.08;;;25.50;99.90;;;;;;5012452;28;20132;-68
2022/09/04 11:12:00;;;;;;;2.60;1.13;;;25.60;99.90;;;;;;5013678;28;20064;-69
2022/09/04 11:15:26;;;;;;;1.25;0.98;;;25.50;99.90;;;;;;4996147;28;20030;-68
2022/09/04 11:18:21;;;;;;;1.48;0.98;;;25.30;99.90;;;;;;5013620;28;20084;-69
2022/09/04 11:21:20;;;;;;;1.05;0.63;;;25.20;99.90;;;;;;5012261;28;20040;-69
2022/09/04 11:24:32;;;;;;;1.67;0.90;;;25.90;99.90;;;;;;5013321;28;20026;-69
2022/09/04 11:27:34;;;;;;;1.50;0.80;;;26.40;99.90;;;;;;5013455;28;20026;-69
2022/09/04 11:30:16;;;;;;;1.50;0.70;;;26.70;99.90;;;;;;5013027;28;20109;-69
2022/09/04 11:32:56;;;;;;;1.05;0.80;;;26.60;99.90;;;;;;5013479;28;20034;-69
2022/09/04 11:36:12;;;;;;;1.90;0.90;;;26.10;99.90;;;;;;5013416;28;20478;-69
2022/09/04 11:39:22;;;;;;;1.40;0.52;;;26.30;99.60;;;;;;4971685;28;20034;-69
2022/09/04 11:42:00;;;;;;;1.08;0.40;;;26.40;97.20;;;;;;4971792;28;20030;-69
2022/09/04 11:44:59;;;;;;;0.77;0.52;;;27.10;96.20;;;;;;5010005;28;20042;-69
2022/09/04 11:47:58;;;;;;;1.98;0.88;;;27.50;97.00;;;;;;5012915;28;20030;-69
2022/09/04 11:51:15;;;;;;;3.25;0.68;;;27.20;96.20;;;;;;5012976;28;20486;-69
2022/09/04 11:53:59;;;;;;;0.80;0.50;;;27.10;95.90;;;;;;5012535;28;20057;-69
2022/09/04 11:57:03;;;;;;;7.85;2.83;;;27.30;95.50;;;;;;5015278;28;20037;-69
2022/09/04 11:59:56;;;;;;;2.60;0.63;;;27.70;95.70;;;;;;5012859;28;20045;-68
2022/09/04 12:02:33;;;;;;;1.92;0.90;;;27.70;95.90;;;;;;5012786;28;20114;-68
2022/09/04 12:05:38;;;;;;;1.05;0.85;;;28.20;94.90;;;;;;5012840;28;20495;-69
2022/09/04 12:09:02;;;;;;;2.15;0.75;;;28.20;93.70;;;;;;5012440;28;20457;-69
2022/09/04 12:11:49;;;;;;;1.95;0.85;;;27.90;94.10;;;;;;4987854;28;20523;-68
2022/09/04 12:14:31;;;;;;;2.53;1.08;;;28.40;93.70;;;;;;5031105;28;20045;-69
2022/09/04 12:17:32;;;;;;;1.75;1.10;;;27.90;93.70;;;;;;5032060;28;20037;-68
2022/09/04 12:20:54;;;;;;;0.77;0.50;;;27.80;94.30;;;;;;5032053;28;20038;-69
2022/09/04 12:23:59;;;;;;;5.47;2.15;;;28.00;94.00;;;;;;5032006;28;20038;-69
2022/09/04 12:26:48;;;;;;;3.45;1.00;;;28.50;94.10;;;;;;5029107;28;20121;-69
2022/09/04 12:29:52;;;;;;;1.52;0.80;;;28.80;93.50;;;;;;5031789;28;20033;-69
2022/09/04 12:32:49;;;;;;;1.90;1.20;;;28.80;92.50;;;;;;5031779;28;20049;-69
2022/09/04 12:35:32;;;;;;;1.42;0.80;;;28.40;92.00;;;;;;5016893;28;20051;-69
2022/09/04 12:38:25;;;;;;;3.10;0.82;;;28.40;91.80;;;;;;5014372;28;20382;-69
2022/09/04 12:41:15;;;;;;;2.30;1.10;;;28.10;92.40;;;;;;5031414;28;20038;-69
2022/09/04 12:44:23;;;;;;;1.38;0.63;;;27.10;92.70;;;;;;5015938;28;20099;-69
2022/09/04 12:47:21;;;;;;;2.15;0.95;;;26.90;93.00;;;;;;5031639;28;20049;-69
2022/09/04 12:50:07;;;;;;;1.42;0.73;;;27.20;93.20;;;;;;5031352;28;20040;-69
2022/09/04 12:52:58;;;;;;;0.93;0.52;;;27.40;92.60;;;;;;5013823;28;20521;-69
2022/09/04 12:55:57;;;;;;;1.08;0.60;;;27.30;92.30;;;;;;5031532;28;20385;-69
2022/09/04 12:59:00;;;;;;;2.05;1.00;;;27.40;92.30;;;;;;5030332;28;20030;-69
2022/09/04 13:02:08;;;;;;;0.93;0.60;;;27.50;92.00;;;;;;5030034;28;20036;-69
2022/09/04 13:04:54;;;;;;;0.85;0.50;;;27.90;91.30;;;;;;5030682;28;20040;-69
2022/09/04 13:08:16;;;;;;;1.40;0.50;;;28.60;91.00;;;;;;5031417;28;20579;-69
2022/09/04 13:10:42;;;;;;;0.80;0.50;;;29.70;90.40;;;;;;4989396;28;20054;-69
2022/09/04 13:14:05;;;;;;;2.13;1.13;;;31.00;87.60;;;;;;4989296;28;20036;-69
2022/09/04 13:17:24;;;;;;;1.27;0.73;;;31.40;84.40;;;;;;4975887;28;20462;-69
2022/09/04 13:20:04;;;;;;;1.98;0.98;;;30.20;86.20;;;;;;4989216;28;20545;-69
2022/09/04 13:22:53;;;;;;;1.00;0.47;;;30.00;87.40;;;;;;4973894;28;20144;-69
2022/09/04 13:26:00;;;;;;;1.27;0.88;;;30.00;88.10;;;;;;4989371;28;20044;-69
2022/09/04 13:29:14;;;;;;;2.08;0.70;;;30.70;85.50;;;;;;4972824;28;20046;-70
2022/09/04 13:32:13;;;;;;;1.08;0.60;;;30.30;86.60;;;;;;4975771;28;20038;-69
2022/09/04 13:35:11;;;;;;;1.23;0.70;;;28.90;90.00;;;;;;4949973;28;20043;-69
2022/09/04 13:37:56;;;;;;;2.05;1.05;;;29.90;88.40;;;;;;4989249;28;20042;-70
2022/09/04 13:40:53;;;;;;;0.93;0.60;;;31.70;84.10;;;;;;4980721;28;20049;-70
2022/09/04 13:43:36;;;;;;;0.75;0.50;;;30.80;83.50;;;;;;5030616;28;20171;-70
2022/09/04 13:46:16;;;;;;;0.85;0.57;;;31.70;82.60;;;;;;5014077;28;20080;-70
2022/09/04 13:48:50;;;;;;;0.93;0.55;;;32.10;82.30;;;;;;5013350;28;20029;-68
2022/09/04 13:51:28;;;;;;;0.30;0.30;;;31.00;82.90;;;;;;5030950;28;20029;-68
2022/09/04 13:54:29;;;;;;;0.40;0.40;;;30.70;83.50;;;;;;5013823;28;20029;-69
2022/09/04 13:57:20;;;;;;;1.70;0.77;;;31.50;80.10;;;;;;5027499;28;20053;-69
2022/09/04 13:59:49;;;;;;;0.98;0.60;;;31.60;80.30;;;;;;5030525;28;20026;-69
2022/09/04 14:02:23;;;;;;;1.02;0.50;;;32.10;78.40;;;;;;5030735;28;20033;-69
2022/09/04 14:04:55;;;;;;;1.73;1.10;;;32.10;78.20;;;;;;5013786;28;20060;-69
2022/09/04 14:07:35;;;;;;;0.65;0.30;;;30.80;79.50;;;;;;5013088;28;20025;-69
2022/09/04 14:10:16;;;;;;;1.75;0.60;;;31.10;79.00;;;;;;4996323;28;20029;-70
2022/09/04 14:12:49;;;;;;;1.15;0.70;;;31.10;78.90;;;;;;5013785;28;20525;-69
2022/09/04 14:16:00;;;;;;;0.98;0.32;;;31.10;77.60;;;;;;5030780;28;20021;-70
2022/09/04 14:18:58;;;;;;;0.50;0.38;;;31.20;76.00;;;;;;5034700;28;20106;-70
2022/09/04 14:21:46;;;;;;;0.95;0.40;;;31.50;74.80;;;;;;5002479;28;20029;-69
2022/09/04 14:24:33;;;;;;;1.33;0.50;;;31.30;75.50;;;;;;5014593;28;20037;-69
2022/09/04 14:27:25;;;;;;;1.58;0.70;;;31.50;73.60;;;;;;5014801;28;20040;-70
2022/09/04 14:30:01;;;;;;;0.30;0.30;;;32.20;74.50;;;;;;5014083;28;20136;-70
2022/09/04 14:33:02;;;;;;;0.50;0.32;;;32.40;72.00;;;;;;5014483;28;20030;-70
2022/09/04 14:35:45;;;;;;;2.03;0.80;;;31.30;72.70;;;;;;5014486;28;20764;-70
2022/09/04 14:38:31;;;;;;;0.50;0.32;;;31.30;74.10;;;;;;5014257;28;20030;-70
2022/09/04 14:41:43;;;;;;;1.33;0.50;;;31.20;73.70;;;;;;5040920;23;20060;-80
2022/09/04 14:44:57;;;;;;;0.73;0.50;;;31.00;72.20;;;;;;4996102;28;20061;-82
2022/09/04 14:47:53;;;;;;;1.13;0.85;;;31.00;72.70;;;;;;4968060;28;20119;-81
2022/09/04 14:50:28;;;;;;;0.57;0.28;;;30.40;74.20;;;;;;4992877;28;20030;-79
2022/09/04 14:52:58;;;;;;;2.20;0.70;;;30.10;73.90;;;;;;4976703;28;20037;-81
2022/09/04 14:55:34;;;;;;;1.67;0.65;;;30.10;74.00;;;;;;4994513;28;20041;-80
2022/09/04 14:58:23;;;;;;;0.55;0.35;;;30.10;74.80;;;;;;4993117;28;20034;-80
2022/09/04 15:01:06;;;;;;;0.98;0.60;;;30.20;74.70;;;;;;4992938;28;20684;-78
2022/09/04 15:03:58;;;;;;;1.27;0.65;;;31.70;73.90;;;;;;4992556;28;20031;-79
2022/09/04 15:06:43;;;;;;;0.45;0.40;;;31.40;73.90;;;;;;4992885;28;20022;-78
2022/09/04 15:09:39;;;;;;;0.38;0.35;;;31.50;72.90;;;;;;4992720;28;20022;-78
2022/09/04 15:12:36;;;;;;;0.98;0.50;;;31.00;70.20;;;;;;4992758;28;20045;-78
2022/09/04 15:15:20;;;;;;;0.38;0.30;;;31.80;69.70;;;;;;4996431;28;20034;-79
2022/09/04 15:18:00;;;;;;;0.40;0.40;;;32.10;68.70;;;;;;4996711;28;20022;-78
2022/09/04 15:20:30;;;;;;;1.98;0.75;;;31.60;70.20;;;;;;4996432;28;20030;-78